Nearby METAR Reports

KLWM - Lawrence,MA, USA
Distance from station: NE 12mi, 19km
Updated: Sun, 22-Apr-2018 6:54pm EDT
Clear
Clear
 Wind from NNW
Wind: NNW 9 mph , 15 km/h
Temperature: 61°F , 16°C
Dew Point: 16°F , -9°C
Humidity: 17%
Barometer: 30.32 inHg , 1026.8 hPa
Clouds: Clear
Visibility: 10 miles , 16 km
2018/04/22 22:54 KLWM 222254Z 34008KT 10SM CLR 16/M09 A3032 RMK AO2 SLP267 T01561094
KBED - Bedford,MA, USA
Distance from station: SSE 12mi, 19km
Updated: Sun, 22-Apr-2018 6:56pm EDT
Clear
Clear
 Wind from NNW
Wind: NNW 5 mph , 7 km/h
Temperature: 57°F , 14°C
Dew Point: 16°F , -9°C
Humidity: 20%
Barometer: 30.29 inHg , 1025.7 hPa
Clouds: Clear
Visibility: 10 miles , 16 km
2018/04/22 22:56 KBED 222256Z AUTO 34004KT 10SM CLR 14/M09 A3029 RMK AO2 SLP271 T01391089

Metar display script from Saratoga-Weather.org